TS28 weather

Northeast Community Hospital Heliport
Bedford, Texas, United States

Public forecast

Using degrees Fahrenheit for public forecast. Weather courtesy of forecast.io.

Closest aviation weather report (METAR) to Northeast Community Hospital Heliport

Closest report is Dallas Fort Worth International Airport, 6.5 nm (12.1 km) ENE. Retrieved 2020/05/25 01:53 UTC (43 minutes ago):

KDFW 250153Z 12013KT 10SM FEW015 FEW040 FEW110 SCT210 BKN250 20/18 A2977 RMK AO2 SLP074 T02000178

Closest aviation forecast (TAF) to Northeast Community Hospital Heliport

Closest forecast is Dallas Fort Worth International Airport, 6.5 nm (12.1 km) ENE. Retrieved 2020-05-25 00:27 UTC (2 hours ago):

TAF KDFW 242325Z 2500/2606 13013KT P6SM SCT040 BKN200 FM250400 13009KT P6SM OVC100 FM250600 14007KT P6SM VCTS OVC050CB TEMPO 2506/2509 5SM -TSRA OVC030CB FM250900 14007KT P6SM VCTS SCT020 OVC035CB FM251800 13005KT P6SM BKN045